Time;durP1;ratioP1;P1;durP2;ratioP2;P2;SDS_P1;SDS_P2;PMS_P1;PMS_P2;Temp;Humidity;BMP_temperature;BMP_pressure;BME280_temperature;BME280_humidity;BME280_pressure;Samples;Min_cycle;Max_cycle;Signal;HPM_P1;HPM_P2
2022/08/15 00:02:17;;;;;;;12.95;8.25;;;24.80;59.80;;;;;;4972729;28;20089;-76
2022/08/15 00:04:44;;;;;;;11.35;8.15;;;24.80;59.60;;;;;;4987945;28;20059;-77
2022/08/15 00:07:13;;;;;;;12.00;9.30;;;24.70;59.60;;;;;;4972052;28;20074;-77
2022/08/15 00:09:40;;;;;;;12.05;8.43;;;24.70;59.80;;;;;;4971367;28;20103;-77
2022/08/15 00:12:07;;;;;;;11.55;9.38;;;24.70;59.80;;;;;;4972994;28;20411;-77
2022/08/15 00:14:36;;;;;;;12.63;9.40;;;24.60;60.00;;;;;;4987526;28;20051;-77
2022/08/15 00:17:09;;;;;;;12.88;8.68;;;24.60;60.50;;;;;;4952191;28;20532;-77
2022/08/15 00:19:38;;;;;;;15.10;9.63;;;24.50;60.50;;;;;;4952325;28;20048;-77
2022/08/15 00:22:08;;;;;;;12.05;9.23;;;24.40;60.50;;;;;;4952043;28;20191;-76
2022/08/15 00:24:38;;;;;;;13.88;9.10;;;24.40;60.70;;;;;;4952061;28;20054;-77
2022/08/15 00:27:07;;;;;;;13.25;8.75;;;24.40;60.70;;;;;;4953091;28;20066;-77
2022/08/15 00:29:35;;;;;;;14.23;9.63;;;24.40;60.50;;;;;;4951833;28;20055;-77
2022/08/15 00:32:05;;;;;;;11.90;8.73;;;24.40;60.60;;;;;;4968096;28;20048;-77
2022/08/15 00:34:32;;;;;;;11.43;8.63;;;24.30;60.50;;;;;;4953624;28;20059;-77
2022/08/15 00:37:00;;;;;;;12.38;8.85;;;24.30;60.30;;;;;;4952124;28;20167;-77
2022/08/15 00:39:29;;;;;;;11.70;8.90;;;24.20;60.20;;;;;;4967821;28;20054;-77
2022/08/15 00:42:00;;;;;;;11.48;8.70;;;24.20;60.50;;;;;;4952135;28;20048;-76
2022/08/15 00:44:30;;;;;;;13.20;9.70;;;24.20;60.60;;;;;;4968333;28;20142;-77
2022/08/15 00:47:01;;;;;;;13.00;10.00;;;24.20;60.70;;;;;;4967994;28;20098;-77
2022/08/15 00:49:33;;;;;;;12.98;9.98;;;24.10;60.80;;;;;;4952468;28;20090;-77
2022/08/15 00:52:04;;;;;;;13.23;9.75;;;24.00;60.90;;;;;;4970996;28;20055;-77
2022/08/15 00:54:36;;;;;;;13.73;9.70;;;24.00;60.80;;;;;;4971204;28;20070;-76
2022/08/15 00:57:08;;;;;;;14.63;9.77;;;24.00;60.70;;;;;;4971253;28;20667;-76
2022/08/15 00:59:38;;;;;;;13.05;9.70;;;24.00;60.70;;;;;;4970850;28;20103;-77
2022/08/15 01:02:10;;;;;;;12.70;9.77;;;23.90;60.70;;;;;;4970717;28;20143;-77
2022/08/15 01:04:38;;;;;;;13.05;9.60;;;23.90;60.50;;;;;;4987220;28;20454;-76
2022/08/15 01:07:07;;;;;;;14.30;9.70;;;23.90;61.10;;;;;;4970928;28;20043;-76
2022/08/15 01:09:38;;;;;;;11.03;8.73;;;23.80;61.10;;;;;;4987086;28;20050;-77
2022/08/15 01:12:13;;;;;;;13.60;8.98;;;23.80;60.90;;;;;;4970818;28;20047;-76
2022/08/15 01:14:44;;;;;;;12.93;9.13;;;23.80;61.30;;;;;;4971044;28;20055;-77
2022/08/15 01:17:11;;;;;;;12.63;9.52;;;23.70;62.20;;;;;;4970831;28;20054;-77
2022/08/15 01:19:44;;;;;;;12.02;9.73;;;23.60;62.50;;;;;;4970578;28;20513;-76
2022/08/15 01:22:39;;;;;;;12.67;8.97;;;23.60;62.60;;;;;;4972127;28;20055;-76
2022/08/15 01:25:12;;;;;;;12.23;9.50;;;23.60;61.50;;;;;;4979878;28;20166;-77
2022/08/15 01:27:43;;;;;;;13.23;9.20;;;23.60;62.40;;;;;;4990364;28;20053;-76
2022/08/15 01:30:19;;;;;;;13.32;9.55;;;23.60;62.60;;;;;;4989553;28;20051;-77
2022/08/15 01:32:47;;;;;;;12.40;9.30;;;23.60;62.80;;;;;;5009949;28;20138;-77
2022/08/15 01:35:16;;;;;;;13.37;9.87;;;23.50;62.80;;;;;;4994272;28;20094;-77
2022/08/15 01:37:43;;;;;;;14.50;9.60;;;23.50;63.20;;;;;;5010177;28;20059;-77
2022/08/15 01:40:24;;;;;;;11.13;8.82;;;23.50;63.30;;;;;;4993506;28;20428;-77
2022/08/15 01:42:52;;;;;;;12.63;9.20;;;23.50;62.80;;;;;;4995273;28;20130;-77
2022/08/15 01:45:22;;;;;;;13.15;8.63;;;23.50;63.00;;;;;;4994859;28;20125;-76
2022/08/15 01:47:55;;;;;;;12.13;9.43;;;23.50;63.50;;;;;;4993586;28;20047;-77
2022/08/15 01:50:27;;;;;;;12.27;9.30;;;23.50;63.70;;;;;;4992814;28;20054;-77
2022/08/15 01:53:00;;;;;;;11.00;8.80;;;23.40;64.00;;;;;;4992891;28;20094;-77
2022/08/15 01:55:44;;;;;;;12.88;8.80;;;23.40;63.80;;;;;;5010003;28;20055;-77
2022/08/15 01:58:11;;;;;;;11.15;8.80;;;23.30;63.20;;;;;;4993247;28;20138;-77
2022/08/15 02:00:39;;;;;;;12.07;8.10;;;23.30;63.80;;;;;;4973850;28;20589;-76
2022/08/15 02:03:06;;;;;;;11.93;8.85;;;23.20;63.70;;;;;;4973691;28;20051;-77
2022/08/15 02:05:33;;;;;;;11.32;8.05;;;23.20;63.50;;;;;;4973412;28;20052;-77
2022/08/15 02:08:00;;;;;;;11.15;7.97;;;23.20;63.30;;;;;;4990127;28;20581;-77
2022/08/15 02:10:27;;;;;;;13.50;9.13;;;23.20;63.30;;;;;;4973025;28;21007;-77
2022/08/15 02:12:55;;;;;;;12.03;8.20;;;23.10;63.50;;;;;;4973325;28;20047;-76
2022/08/15 02:15:23;;;;;;;11.65;8.40;;;23.10;63.60;;;;;;4989337;28;20106;-77
2022/08/15 02:17:55;;;;;;;10.90;8.40;;;23.10;63.60;;;;;;4989749;28;20494;-77
2022/08/15 02:20:23;;;;;;;11.40;8.45;;;23.10;63.20;;;;;;4974319;28;20110;-76
2022/08/15 02:22:50;;;;;;;10.98;8.43;;;23.10;63.50;;;;;;4989122;28;20057;-77
2022/08/15 02:25:17;;;;;;;12.23;8.90;;;23.10;63.50;;;;;;4973598;28;20059;-76
2022/08/15 02:27:44;;;;;;;11.73;9.13;;;23.10;63.40;;;;;;4989647;28;20055;-77
2022/08/15 02:30:17;;;;;;;11.07;8.52;;;23.00;63.50;;;;;;4973070;28;20059;-76
2022/08/15 02:32:46;;;;;;;11.85;9.32;;;23.10;63.40;;;;;;4973333;28;20102;-77
2022/08/15 02:35:16;;;;;;;11.27;8.55;;;23.00;63.60;;;;;;4989576;28;20053;-77
2022/08/15 02:37:43;;;;;;;12.47;9.37;;;23.00;63.90;;;;;;4992427;28;20051;-77
2022/08/15 02:40:14;;;;;;;11.82;7.97;;;23.00;63.90;;;;;;4991930;28;21011;-76
2022/08/15 02:42:42;;;;;;;10.90;8.13;;;23.00;63.70;;;;;;5007535;28;20098;-77
2022/08/15 02:45:11;;;;;;;11.73;8.57;;;23.00;63.70;;;;;;5008734;28;20501;-77
2022/08/15 02:47:43;;;;;;;13.50;9.07;;;22.90;63.90;;;;;;4992470;28;20102;-77
2022/08/15 02:50:11;;;;;;;13.83;8.40;;;22.90;63.90;;;;;;5008241;28;20058;-76
2022/08/15 02:52:40;;;;;;;13.23;8.55;;;22.90;63.70;;;;;;4991820;28;20046;-76
2022/08/15 02:55:10;;;;;;;12.25;8.55;;;22.90;63.80;;;;;;4991746;28;20085;-76
2022/08/15 02:57:38;;;;;;;13.45;7.80;;;22.90;63.60;;;;;;4993608;28;20046;-77
2022/08/15 03:00:07;;;;;;;14.32;8.63;;;22.90;63.40;;;;;;4990793;28;20193;-77
2022/08/15 03:02:53;;;;;;;17.70;9.03;;;22.90;63.60;;;;;;4990065;28;20050;-77
2022/08/15 03:05:23;;;;;;;13.70;8.40;;;22.90;62.90;;;;;;4973953;28;20046;-77
2022/08/15 03:07:51;;;;;;;12.55;7.80;;;22.90;63.80;;;;;;4989230;28;20062;-77
2022/08/15 03:10:19;;;;;;;12.63;8.50;;;22.90;63.70;;;;;;4990003;28;20053;-77
2022/08/15 03:12:53;;;;;;;11.52;7.80;;;22.90;63.70;;;;;;4990266;28;20584;-77
2022/08/15 03:15:24;;;;;;;11.47;7.67;;;22.90;63.70;;;;;;4991912;28;20058;-77
2022/08/15 03:17:53;;;;;;;11.23;7.70;;;22.90;63.70;;;;;;5008358;28;20073;-76
2022/08/15 03:20:21;;;;;;;14.15;7.82;;;22.80;63.60;;;;;;4991356;28;20050;-76
2022/08/15 03:22:51;;;;;;;13.13;8.10;;;22.80;63.70;;;;;;5008038;28;20051;-77
2022/08/15 03:25:25;;;;;;;12.07;7.85;;;22.80;63.60;;;;;;5008223;28;20134;-76
2022/08/15 03:27:55;;;;;;;13.07;8.87;;;22.80;64.00;;;;;;4991834;28;20066;-76
2022/08/15 03:30:22;;;;;;;13.38;8.25;;;22.80;63.90;;;;;;4990890;28;20047;-76
2022/08/15 03:32:57;;;;;;;11.40;7.85;;;22.80;63.60;;;;;;5007834;28;20729;-76
2022/08/15 03:35:31;;;;;;;11.50;8.00;;;22.80;63.60;;;;;;4975546;28;20645;-76
2022/08/15 03:38:01;;;;;;;12.07;7.93;;;22.80;63.40;;;;;;5008037;28;20069;-76
2022/08/15 03:40:32;;;;;;;12.30;8.37;;;22.70;63.20;;;;;;4974767;28;20453;-77
2022/08/15 03:43:03;;;;;;;11.32;8.20;;;22.70;63.60;;;;;;4981126;28;20801;-76
2022/08/15 03:45:31;;;;;;;11.65;7.78;;;22.70;63.90;;;;;;4968717;28;20044;-76
2022/08/15 03:48:00;;;;;;;10.35;7.93;;;22.70;63.90;;;;;;4952386;28;20050;-76
2022/08/15 03:50:28;;;;;;;12.95;8.35;;;22.60;63.70;;;;;;4953571;28;20048;-77
2022/08/15 03:53:03;;;;;;;10.53;7.93;;;22.60;63.70;;;;;;4968793;28;20056;-76
2022/08/15 03:55:33;;;;;;;11.10;8.05;;;22.60;63.50;;;;;;4984509;28;20052;-77
2022/08/15 03:58:01;;;;;;;14.00;8.80;;;22.60;63.50;;;;;;4968550;28;20095;-76
2022/08/15 04:00:32;;;;;;;12.35;8.80;;;22.60;63.50;;;;;;4951790;28;20048;-76
2022/08/15 04:03:09;;;;;;;12.25;8.30;;;22.50;63.60;;;;;;4952026;28;20062;-76
2022/08/15 04:05:37;;;;;;;11.63;8.57;;;22.50;63.20;;;;;;4984690;28;20538;-76
2022/08/15 04:08:06;;;;;;;12.32;8.88;;;22.50;63.70;;;;;;4968047;28;20056;-76
2022/08/15 04:10:33;;;;;;;12.27;8.43;;;22.50;63.80;;;;;;4951630;28;20214;-77
2022/08/15 04:13:02;;;;;;;11.77;8.40;;;22.50;63.70;;;;;;4952124;28;20052;-76
2022/08/15 04:15:29;;;;;;;13.85;8.90;;;22.50;63.60;;;;;;4968431;28;20051;-76
2022/08/15 04:17:56;;;;;;;12.70;8.77;;;22.50;63.60;;;;;;4959921;28;20071;-76
2022/08/15 04:20:25;;;;;;;12.52;9.05;;;22.50;63.70;;;;;;4971102;28;20481;-77
2022/08/15 04:22:52;;;;;;;11.73;9.13;;;22.40;63.70;;;;;;4970469;28;20052;-76
2022/08/15 04:25:23;;;;;;;11.80;9.40;;;22.40;63.80;;;;;;4970647;28;20047;-76
2022/08/15 04:27:52;;;;;;;14.00;9.38;;;22.30;64.00;;;;;;4970969;28;20838;-76
2022/08/15 04:30:21;;;;;;;8.70;5.77;;;22.30;63.70;;;;;;4986407;28;20075;-81
2022/08/15 04:32:49;;;;;;;7.18;5.10;;;22.30;64.10;;;;;;4987189;28;20549;-79
2022/08/15 04:35:16;;;;;;;11.50;7.93;;;22.30;64.70;;;;;;4971161;28;20055;-80
2022/08/15 04:37:45;;;;;;;11.20;8.02;;;22.20;64.90;;;;;;4971009;28;20058;-81
2022/08/15 04:40:14;;;;;;;11.73;8.57;;;22.20;64.90;;;;;;4970995;28;20130;-82
2022/08/15 04:42:49;;;;;;;12.20;8.43;;;22.20;64.80;;;;;;4969628;28;20502;-82
2022/08/15 04:45:17;;;;;;;13.32;8.32;;;22.20;64.40;;;;;;4969719;28;20655;-80
2022/08/15 04:47:45;;;;;;;13.43;9.55;;;22.20;64.60;;;;;;4969511;28;20051;-80
2022/08/15 04:50:12;;;;;;;14.18;9.52;;;22.20;64.60;;;;;;4971183;28;20059;-81
2022/08/15 04:52:46;;;;;;;12.30;9.43;;;22.20;64.70;;;;;;4970013;28;20126;-75
2022/08/15 04:55:14;;;;;;;16.13;8.87;;;22.20;64.70;;;;;;4970714;28;20485;-77
2022/08/15 04:57:43;;;;;;;12.55;8.48;;;22.20;64.80;;;;;;4970477;28;20481;-77
2022/08/15 05:00:12;;;;;;;11.27;8.75;;;22.20;64.80;;;;;;4986063;28;20086;-79
2022/08/15 05:03:06;;;;;;;12.13;9.00;;;22.20;64.70;;;;;;4965059;28;20066;-76
2022/08/15 05:05:36;;;;;;;12.15;8.25;;;22.20;64.90;;;;;;4968815;28;20048;-75
2022/08/15 05:08:05;;;;;;;12.53;9.00;;;22.20;64.70;;;;;;4983665;28;20078;-76
2022/08/15 05:10:35;;;;;;;11.50;8.23;;;22.20;64.70;;;;;;4974419;28;20055;-82
2022/08/15 05:13:12;;;;;;;11.02;7.80;;;22.20;64.70;;;;;;4956301;28;20051;-77
2022/08/15 05:15:41;;;;;;;12.00;8.77;;;22.20;64.30;;;;;;4980625;28;20055;-75
2022/08/15 05:18:08;;;;;;;13.73;8.90;;;22.20;64.80;;;;;;4987049;28;20059;-80
2022/08/15 05:20:36;;;;;;;11.63;8.30;;;22.20;65.10;;;;;;4953702;28;20051;-79
2022/08/15 05:23:08;;;;;;;11.68;8.80;;;22.20;65.10;;;;;;4952586;28;20163;-79
2022/08/15 05:25:46;;;;;;;13.05;8.82;;;22.20;65.40;;;;;;4952047;28;20052;-76
2022/08/15 05:28:15;;;;;;;12.57;8.60;;;22.20;65.10;;;;;;4983330;28;20056;-78
2022/08/15 05:30:42;;;;;;;11.32;8.55;;;22.20;65.10;;;;;;4968361;28;20962;-80
2022/08/15 05:33:11;;;;;;;13.30;9.23;;;22.20;65.20;;;;;;4968320;28;20133;-80
2022/08/15 05:35:42;;;;;;;10.57;7.88;;;22.20;65.30;;;;;;4952729;28;20098;-83
2022/08/15 05:38:15;;;;;;;10.98;8.40;;;22.20;65.50;;;;;;4967815;28;20561;-83
2022/08/15 05:40:54;;;;;;;10.40;8.20;;;22.20;65.40;;;;;;4969993;28;20047;-85
2022/08/15 05:43:31;;;;;;;11.35;8.65;;;22.20;64.90;;;;;;4953997;28;20070;-80
2022/08/15 05:46:00;;;;;;;10.37;8.33;;;22.20;65.20;;;;;;5000262;28;20051;-76
2022/08/15 05:48:31;;;;;;;11.35;8.90;;;22.20;65.40;;;;;;4989803;28;20054;-76
2022/08/15 05:51:14;;;;;;;11.95;8.20;;;22.20;65.40;;;;;;4989392;28;20047;-78
2022/08/15 05:54:00;;;;;;;12.05;8.52;;;22.20;64.10;;;;;;4989442;28;20047;-84
2022/08/15 05:56:36;;;;;;;10.95;8.43;;;22.20;64.70;;;;;;5006106;28;20043;-80
2022/08/15 05:59:06;;;;;;;11.03;8.20;;;22.30;65.20;;;;;;4988819;28;20158;-80
2022/08/15 06:01:39;;;;;;;12.45;8.27;;;22.30;65.50;;;;;;4989671;28;20158;-77
2022/08/15 06:04:14;;;;;;;12.27;8.40;;;22.30;65.60;;;;;;5006535;28;20066;-78
2022/08/15 06:06:45;;;;;;;11.60;8.63;;;22.30;65.50;;;;;;4989188;28;20043;-80
2022/08/15 06:09:34;;;;;;;15.00;9.13;;;22.30;65.60;;;;;;5005309;28;20062;-79
2022/08/15 06:12:07;;;;;;;12.43;8.57;;;22.40;63.90;;;;;;4966517;28;20044;-78
2022/08/15 06:14:38;;;;;;;12.27;8.73;;;22.30;65.80;;;;;;4960661;28;20138;-78
2022/08/15 06:17:15;;;;;;;12.90;9.63;;;22.40;65.80;;;;;;4963422;28;20051;-78
2022/08/15 06:19:46;;;;;;;12.68;9.10;;;22.40;65.70;;;;;;4970464;28;20048;-78
2022/08/15 06:22:35;;;;;;;12.02;9.38;;;22.40;65.80;;;;;;4973403;28;20043;-78
2022/08/15 06:25:12;;;;;;;11.13;8.50;;;22.40;66.10;;;;;;4971731;28;20130;-78
2022/08/15 06:27:53;;;;;;;11.48;9.10;;;22.50;65.80;;;;;;4970366;28;20103;-76
2022/08/15 06:30:24;;;;;;;13.45;9.32;;;22.50;65.40;;;;;;4970522;28;20091;-76
2022/08/15 06:32:58;;;;;;;11.60;8.70;;;22.50;66.60;;;;;;4970314;28;20048;-77
2022/08/15 06:35:35;;;;;;;12.35;9.45;;;22.50;66.40;;;;;;4969813;28;20048;-76
2022/08/15 06:38:10;;;;;;;11.37;8.80;;;22.50;66.70;;;;;;4959747;28;20570;-76
2022/08/15 06:40:52;;;;;;;13.25;9.43;;;22.50;66.60;;;;;;4972257;28;20051;-75
2022/08/15 06:43:19;;;;;;;12.90;9.32;;;22.50;66.90;;;;;;4956342;28;20047;-75
2022/08/15 06:46:15;;;;;;;11.52;8.68;;;22.50;67.40;;;;;;4867093;28;20091;-76
2022/08/15 06:48:43;;;;;;;13.55;9.43;;;22.50;66.90;;;;;;4908787;28;20057;-76
2022/08/15 06:51:12;;;;;;;12.90;9.30;;;22.50;67.80;;;;;;4971998;28;20055;-77
2022/08/15 06:53:49;;;;;;;12.60;9.20;;;22.50;68.10;;;;;;4956844;28;20047;-78
2022/08/15 06:56:25;;;;;;;13.57;10.40;;;22.50;68.20;;;;;;4988093;28;20134;-77
2022/08/15 06:59:00;;;;;;;13.70;10.18;;;22.50;67.90;;;;;;4999675;28;20051;-74
2022/08/15 07:01:51;;;;;;;15.02;10.00;;;22.60;67.90;;;;;;4988560;28;20149;-76
2022/08/15 07:04:26;;;;;;;12.07;9.40;;;22.60;67.70;;;;;;4972491;28;20059;-75
2022/08/15 07:07:00;;;;;;;12.63;8.65;;;22.60;67.70;;;;;;4986510;28;20357;-75
2022/08/15 07:09:44;;;;;;;11.52;8.70;;;22.60;67.70;;;;;;4958684;28;20074;-77
2022/08/15 07:12:21;;;;;;;13.77;9.70;;;22.60;67.20;;;;;;4977740;28;20054;-77
2022/08/15 07:14:57;;;;;;;12.23;9.63;;;22.70;67.10;;;;;;4971903;28;20099;-76
2022/08/15 07:17:29;;;;;;;11.43;8.50;;;22.70;66.70;;;;;;4987853;28;20043;-77
2022/08/15 07:19:56;;;;;;;12.20;8.98;;;22.70;66.40;;;;;;4975052;28;20051;-79
2022/08/15 07:22:32;;;;;;;12.60;8.90;;;22.70;66.40;;;;;;4988143;28;20442;-80
2022/08/15 07:25:00;;;;;;;12.68;9.00;;;22.80;66.00;;;;;;4984045;28;20078;-79
2022/08/15 07:27:31;;;;;;;13.05;9.40;;;22.80;65.90;;;;;;4968763;28;20058;-78
2022/08/15 07:30:02;;;;;;;12.87;9.30;;;22.80;65.90;;;;;;4970058;28;20593;-78
2022/08/15 07:32:38;;;;;;;13.27;9.20;;;22.90;65.90;;;;;;4987214;28;20059;-77
2022/08/15 07:35:18;;;;;;;14.25;9.50;;;22.90;66.00;;;;;;4971197;28;20056;-76
2022/08/15 07:37:56;;;;;;;11.73;9.52;;;23.00;65.60;;;;;;4971897;28;20149;-79
2022/08/15 07:40:28;;;;;;;13.07;8.50;;;23.00;65.70;;;;;;4991254;28;20039;-80
2022/08/15 07:42:57;;;;;;;14.03;10.00;;;23.00;65.70;;;;;;4988577;28;20062;-79
2022/08/15 07:45:30;;;;;;;14.90;10.65;;;23.10;66.00;;;;;;4971795;28;20731;-82
2022/08/15 07:48:16;;;;;;;14.52;10.95;;;23.10;66.10;;;;;;4971355;28;20110;-79
2022/08/15 07:50:46;;;;;;;14.70;9.50;;;23.20;66.10;;;;;;4954943;28;20066;-81
2022/08/15 07:53:17;;;;;;;13.20;9.85;;;23.20;66.20;;;;;;4968610;28;20183;-81
2022/08/15 07:56:06;;;;;;;15.97;9.47;;;23.30;66.00;;;;;;4951473;28;20056;-81
2022/08/15 07:58:36;;;;;;;14.05;10.32;;;23.30;65.60;;;;;;4951077;28;20154;-81
2022/08/15 08:01:11;;;;;;;14.88;10.40;;;23.40;65.80;;;;;;4966939;28;20553;-81
2022/08/15 08:03:41;;;;;;;12.68;9.93;;;23.50;65.80;;;;;;4956608;28;20130;-81
2022/08/15 08:06:18;;;;;;;15.23;10.23;;;23.50;65.80;;;;;;4970469;28;20066;-83
2022/08/15 08:08:53;;;;;;;13.20;10.30;;;23.50;65.40;;;;;;4977475;28;20158;-81
2022/08/15 08:11:25;;;;;;;13.85;10.73;;;23.60;64.90;;;;;;4964367;28;20106;-81
2022/08/15 08:14:01;;;;;;;13.95;10.00;;;23.60;64.80;;;;;;4971319;28;20130;-81
2022/08/15 08:16:36;;;;;;;15.05;10.07;;;23.60;65.00;;;;;;4971044;28;20788;-80
2022/08/15 08:19:13;;;;;;;12.85;10.05;;;23.60;65.30;;;;;;4971140;28;20063;-79
2022/08/15 08:21:59;;;;;;;14.87;11.00;;;23.70;65.20;;;;;;4970907;28;21017;-77
2022/08/15 08:24:32;;;;;;;15.13;10.23;;;23.80;65.00;;;;;;4970723;28;20062;-81
2022/08/15 08:27:07;;;;;;;13.85;10.15;;;23.80;65.00;;;;;;4955028;28;20075;-87
2022/08/15 08:29:48;;;;;;;16.23;10.85;;;23.90;65.00;;;;;;4954817;28;20055;-79
2022/08/15 08:32:31;;;;;;;14.48;9.88;;;23.90;64.50;;;;;;4954691;28;20058;-78
2022/08/15 08:35:07;;;;;;;12.47;9.73;;;23.90;64.60;;;;;;4970786;28;20062;-77
2022/08/15 08:37:40;;;;;;;13.25;10.27;;;24.00;64.70;;;;;;4954186;28;20556;-78
2022/08/15 08:43:07;;;;;;;13.57;10.63;;;24.00;64.70;;;;;;4971033;28;20059;-79
2022/08/15 08:45:44;;;;;;;16.17;11.93;;;24.10;64.20;;;;;;4954594;28;20502;-82
2022/08/15 08:48:31;;;;;;;18.23;12.70;;;24.10;63.70;;;;;;4985646;28;20078;-85
2022/08/15 08:51:05;;;;;;;14.57;11.32;;;24.20;63.20;;;;;;4969605;28;20117;-80
2022/08/15 08:53:56;;;;;;;16.05;12.05;;;24.20;63.40;;;;;;4970353;28;20055;-80
2022/08/15 08:56:26;;;;;;;20.58;11.93;;;24.20;63.30;;;;;;4970937;28;20059;-79
2022/08/15 08:59:01;;;;;;;17.13;11.30;;;24.30;63.10;;;;;;4970329;28;20158;-81
2022/08/15 09:01:32;;;;;;;14.60;10.67;;;24.40;63.20;;;;;;4970578;28;20051;-81
2022/08/15 09:04:04;;;;;;;17.30;11.57;;;24.40;63.50;;;;;;4970128;28;20055;-81
2022/08/15 09:06:37;;;;;;;17.23;11.60;;;24.50;63.20;;;;;;4971052;28;20170;-82
2022/08/15 09:09:08;;;;;;;14.70;11.23;;;24.60;63.10;;;;;;4969138;28;20063;-82
2022/08/15 09:11:42;;;;;;;15.85;12.25;;;24.60;62.70;;;;;;4969238;28;20134;-81
2022/08/15 09:14:15;;;;;;;17.30;11.60;;;24.70;62.20;;;;;;4969087;28;20589;-81
2022/08/15 09:16:45;;;;;;;16.27;11.00;;;24.70;61.90;;;;;;4995750;28;20087;-81
2022/08/15 09:19:17;;;;;;;17.27;12.23;;;24.80;61.90;;;;;;5006286;28;20142;-82
2022/08/15 09:21:46;;;;;;;14.10;10.75;;;24.90;61.80;;;;;;5006057;28;20131;-79
2022/08/15 09:24:15;;;;;;;20.40;14.20;;;25.00;61.80;;;;;;5006021;28;20535;-85
2022/08/15 09:26:49;;;;;;;14.70;11.30;;;25.00;61.30;;;;;;4990397;28;20579;-84
2022/08/15 09:29:24;;;;;;;16.17;13.18;;;25.00;61.00;;;;;;4989819;28;20067;-83
2022/08/15 09:32:07;;;;;;;17.17;11.82;;;25.10;60.70;;;;;;4978808;28;20055;-85
2022/08/15 09:34:50;;;;;;;17.92;12.88;;;25.20;60.30;;;;;;4970111;28;20055;-83
2022/08/15 09:37:48;;;;;;;18.15;11.50;;;25.20;60.10;;;;;;4969698;28;20055;-84
2022/08/15 09:40:32;;;;;;;16.97;12.53;;;25.20;60.40;;;;;;4969570;28;20744;-85
2022/08/15 09:43:35;;;;;;;16.85;12.50;;;25.20;60.50;;;;;;4966351;28;20114;-85
2022/08/15 09:46:24;;;;;;;16.88;12.13;;;25.20;60.80;;;;;;4935376;28;20083;-86
2022/08/15 09:49:04;;;;;;;16.25;13.27;;;25.30;60.90;;;;;;4981566;28;20066;-84
2022/08/15 09:51:57;;;;;;;19.92;15.38;;;25.30;60.80;;;;;;4972387;28;20057;-82
2022/08/15 09:54:26;;;;;;;18.13;14.00;;;25.30;60.20;;;;;;4973458;28;20140;-83
2022/08/15 09:57:31;;;;;;;23.17;16.73;;;25.30;60.40;;;;;;4989128;28;20050;-82
2022/08/15 10:00:04;;;;;;;18.90;14.65;;;25.30;60.30;;;;;;4972924;28;20752;-85
2022/08/15 10:02:41;;;;;;;25.90;17.55;;;25.20;60.30;;;;;;4892041;28;20074;-86
2022/08/15 10:05:23;;;;;;;23.50;16.80;;;25.20;60.40;;;;;;4986136;28;20058;-83
2022/08/15 10:07:53;;;;;;;20.80;14.77;;;25.20;60.60;;;;;;4989336;28;20051;-83
2022/08/15 10:10:24;;;;;;;21.23;15.70;;;25.20;60.50;;;;;;4973850;28;20062;-81
2022/08/15 10:13:19;;;;;;;20.80;15.52;;;25.20;60.70;;;;;;4973602;28;20067;-82
2022/08/15 10:15:49;;;;;;;21.95;15.05;;;25.20;60.70;;;;;;4973122;28;20047;-84
2022/08/15 10:18:51;;;;;;;23.33;16.20;;;25.20;60.70;;;;;;4972948;28;20134;-82
2022/08/15 10:21:20;;;;;;;23.77;16.07;;;25.20;60.60;;;;;;4971433;28;20039;-83
2022/08/15 10:23:50;;;;;;;20.80;15.20;;;25.20;60.80;;;;;;4972320;28;20053;-82
2022/08/15 10:26:25;;;;;;;38.08;17.38;;;25.20;60.80;;;;;;4973088;28;20537;-83
2022/08/15 10:29:02;;;;;;;19.90;14.23;;;25.20;61.00;;;;;;4982914;28;20082;-83
2022/08/15 10:31:38;;;;;;;22.63;14.48;;;25.20;61.20;;;;;;4973048;28;20059;-83
2022/08/15 10:34:08;;;;;;;18.77;13.50;;;25.20;61.50;;;;;;4973246;28;20063;-83
2022/08/15 10:36:36;;;;;;;22.77;15.27;;;25.20;61.50;;;;;;4973261;28;20151;-83
2022/08/15 10:39:21;;;;;;;19.20;14.40;;;25.30;61.60;;;;;;4972431;28;20055;-84
2022/08/15 10:41:59;;;;;;;20.63;15.55;;;25.30;61.40;;;;;;4973612;28;20138;-83
2022/08/15 10:44:41;;;;;;;17.88;14.00;;;25.30;61.60;;;;;;4972938;28;20057;-81
2022/08/15 10:47:20;;;;;;;17.00;12.70;;;25.30;61.70;;;;;;4969929;28;20530;-81
2022/08/15 10:50:03;;;;;;;15.10;12.02;;;25.30;61.80;;;;;;4975629;28;20067;-81
2022/08/15 10:52:40;;;;;;;16.38;11.93;;;25.30;62.10;;;;;;4987340;28;20138;-81
2022/08/15 10:55:27;;;;;;;15.30;11.55;;;25.40;62.30;;;;;;4987192;28;20051;-81
2022/08/15 10:57:58;;;;;;;17.55;12.65;;;25.40;61.90;;;;;;4971028;28;20535;-81
2022/08/15 11:00:38;;;;;;;17.40;13.30;;;25.40;63.00;;;;;;4974388;28;20051;-80
2022/08/15 11:03:11;;;;;;;16.35;12.57;;;25.40;63.30;;;;;;4973934;28;20051;-82
2022/08/15 11:05:38;;;;;;;19.17;13.13;;;25.50;63.50;;;;;;4971628;28;20062;-81
2022/08/15 11:08:13;;;;;;;16.80;12.90;;;25.50;63.40;;;;;;4972280;28;20091;-81
2022/08/15 11:10:40;;;;;;;20.95;13.85;;;25.50;64.10;;;;;;4972296;28;20131;-78
2022/08/15 11:13:10;;;;;;;17.77;13.20;;;25.50;64.30;;;;;;4972077;28;21213;-78
2022/08/15 11:15:49;;;;;;;17.65;13.45;;;25.60;64.00;;;;;;4972799;28;20468;-80
2022/08/15 11:18:27;;;;;;;17.60;13.85;;;25.60;63.30;;;;;;4985261;28;20059;-81
2022/08/15 11:21:02;;;;;;;18.55;14.15;;;25.50;63.20;;;;;;4953212;28;20056;-80
2022/08/15 11:23:36;;;;;;;20.35;15.02;;;25.60;63.20;;;;;;4982145;28;20116;-80
2022/08/15 11:26:04;;;;;;;19.13;14.30;;;25.60;63.80;;;;;;4972559;28;20515;-80
2022/08/15 11:28:32;;;;;;;20.92;14.80;;;25.60;63.70;;;;;;4973328;28;20055;-79
2022/08/15 11:31:03;;;;;;;19.67;14.50;;;25.60;63.40;;;;;;4969128;28;20055;-83
2022/08/15 11:33:42;;;;;;;20.48;14.48;;;25.60;63.50;;;;;;4983860;28;20134;-84
2022/08/15 11:36:12;;;;;;;22.95;14.38;;;25.60;63.50;;;;;;4969573;28;20043;-83
2022/08/15 11:38:46;;;;;;;16.57;12.33;;;25.60;63.30;;;;;;4956004;28;20952;-83
2022/08/15 11:41:21;;;;;;;17.77;12.60;;;25.60;63.70;;;;;;4972021;28;20419;-83
2022/08/15 11:43:52;;;;;;;15.98;12.35;;;25.60;63.20;;;;;;4971636;28;20437;-83
2022/08/15 11:46:20;;;;;;;18.10;13.80;;;25.60;63.60;;;;;;4970261;28;20811;-83
2022/08/15 11:48:59;;;;;;;15.30;11.90;;;25.70;63.70;;;;;;4983197;28;20055;-85
2022/08/15 11:51:28;;;;;;;14.37;10.50;;;25.80;64.00;;;;;;4972260;28;20079;-82
2022/08/15 11:54:08;;;;;;;18.85;13.88;;;25.80;63.90;;;;;;4971880;28;20067;-83
2022/08/15 11:56:47;;;;;;;19.67;14.32;;;25.90;63.60;;;;;;4971957;28;20138;-83
2022/08/15 11:59:15;;;;;;;20.83;14.57;;;25.90;63.20;;;;;;4971680;28;20062;-82
2022/08/15 12:01:44;;;;;;;22.15;15.13;;;26.00;63.00;;;;;;4971757;28;20134;-82
2022/08/15 12:04:13;;;;;;;16.67;11.87;;;26.00;62.60;;;;;;4971922;28;20062;-82
2022/08/15 12:06:42;;;;;;;16.63;11.70;;;26.00;61.70;;;;;;4971951;28;20047;-83
2022/08/15 12:09:14;;;;;;;17.23;13.82;;;26.00;61.40;;;;;;4971447;28;20055;-82
2022/08/15 12:11:46;;;;;;;20.75;16.45;;;26.00;61.80;;;;;;4975831;28;20204;-82
2022/08/15 12:14:16;;;;;;;19.48;15.23;;;26.10;62.90;;;;;;4971632;28;20514;-82
2022/08/15 12:16:47;;;;;;;22.10;16.67;;;26.10;63.10;;;;;;4970332;28;20054;-82
2022/08/15 12:19:39;;;;;;;17.92;14.75;;;26.20;63.10;;;;;;4971525;28;20085;-83
2022/08/15 12:22:13;;;;;;;20.77;15.02;;;26.20;62.60;;;;;;4971667;28;20047;-82
2022/08/15 12:24:42;;;;;;;21.58;16.50;;;26.30;63.20;;;;;;4974272;28;20061;-83
2022/08/15 12:27:10;;;;;;;22.30;17.02;;;26.40;63.90;;;;;;4972085;28;20134;-84
2022/08/15 12:29:39;;;;;;;23.33;19.10;;;26.40;63.70;;;;;;4960085;28;20130;-84
2022/08/15 12:32:09;;;;;;;23.75;18.13;;;26.40;64.10;;;;;;4952076;28;20134;-82
2022/08/15 12:34:40;;;;;;;21.65;18.35;;;26.40;64.10;;;;;;5051832;23;20583;-83
2022/08/15 12:37:10;;;;;;;22.75;17.48;;;26.40;64.00;;;;;;5000588;28;20047;-82
2022/08/15 12:39:43;;;;;;;20.33;15.32;;;26.30;64.20;;;;;;4974047;28;20115;-82
2022/08/15 12:42:13;;;;;;;20.97;15.00;;;26.20;63.20;;;;;;4995712;28;20122;-83
2022/08/15 12:44:39;;;;;;;17.77;13.68;;;26.20;63.00;;;;;;5001990;28;20470;-84
2022/08/15 12:47:07;;;;;;;20.75;15.90;;;26.10;63.20;;;;;;4978704;28;20063;-80
2022/08/15 12:49:35;;;;;;;20.67;16.48;;;26.10;62.80;;;;;;4979848;28;20160;-82
2022/08/15 12:52:04;;;;;;;20.13;15.85;;;26.10;62.80;;;;;;4992525;28;20055;-83
2022/08/15 12:54:31;;;;;;;18.30;15.60;;;26.10;62.50;;;;;;4979270;28;20578;-80
2022/08/15 12:56:58;;;;;;;15.40;13.75;;;26.10;62.40;;;;;;5002492;28;20058;-81
2022/08/15 12:59:25;;;;;;;15.93;13.25;;;26.10;62.40;;;;;;4972233;28;20054;-86
2022/08/15 13:01:52;;;;;;;18.85;14.43;;;26.10;62.40;;;;;;4974670;28;20091;-81
2022/08/15 13:04:19;;;;;;;17.55;13.70;;;26.00;62.60;;;;;;4972581;28;20216;-83
2022/08/15 13:06:49;;;;;;;18.37;15.37;;;26.00;62.50;;;;;;4973941;28;20079;-83